createdAt,value
2022-10-25T00:01:56.470Z,99765.34
2022-10-25T00:04:23.877Z,99771.59
2022-10-25T00:06:51.029Z,99765.53
2022-10-25T00:09:18.373Z,99762.16
2022-10-25T00:11:45.484Z,99769.22
2022-10-25T00:14:18.716Z,99770.91
2022-10-25T00:16:46.086Z,99758.97
2022-10-25T00:19:14.384Z,99765.56
2022-10-25T00:21:41.720Z,99762.84
2022-10-25T00:24:12.225Z,99752.91
2022-10-25T00:26:42.227Z,99776.31
2022-10-25T00:29:11.984Z,99755.09
2022-10-25T00:31:39.322Z,99760.81
2022-10-25T00:34:06.664Z,99768.75
2022-10-25T00:36:33.849Z,99768.25
2022-10-25T00:39:01.515Z,99753.44
2022-10-25T00:41:31.840Z,99764.00
2022-10-25T00:44:36.287Z,99766.03
2022-10-25T00:47:05.977Z,99770.28
2022-10-25T00:49:34.587Z,99772.44
2022-10-25T00:52:04.651Z,99770.41
2022-10-25T00:54:39.376Z,99764.00
2022-10-25T00:57:15.123Z,99764.84
2022-10-25T00:59:43.935Z,99752.03
2022-10-25T01:02:11.836Z,99764.84
2022-10-25T01:04:39.894Z,99754.38
2022-10-25T01:07:07.127Z,99755.44
2022-10-25T01:09:37.802Z,99750.69
2022-10-25T01:12:05.463Z,99761.78
2022-10-25T01:14:42.071Z,99753.06
2022-10-25T01:17:21.415Z,99761.50
2022-10-25T01:20:17.877Z,99763.53
2022-10-25T01:23:20.495Z,99761.34
2022-10-25T01:25:56.848Z,99767.91
2022-10-25T01:29:00.919Z,99759.47
2022-10-25T01:31:31.559Z,99763.84
2022-10-25T01:34:16.670Z,99750.69
2022-10-25T01:37:08.392Z,99761.66
2022-10-25T01:39:43.740Z,99759.81
2022-10-25T01:42:17.236Z,99752.72
2022-10-25T01:44:48.759Z,99752.72
2022-10-25T01:47:29.402Z,99752.75
2022-10-25T01:50:11.391Z,99756.63
2022-10-25T01:52:38.819Z,99758.47
2022-10-25T01:55:10.406Z,99756.13
2022-10-25T01:57:45.391Z,99764.88
2022-10-25T02:00:21.268Z,99762.84
2022-10-25T02:03:15.658Z,99763.34
2022-10-25T02:05:56.441Z,99755.09
2022-10-25T02:08:53.941Z,99748.31
2022-10-25T02:11:25.373Z,99743.56
2022-10-25T02:14:22.050Z,99752.16
2022-10-25T02:17:04.997Z,99749.16
2022-10-25T02:19:41.335Z,99749.03
2022-10-25T02:22:10.566Z,99755.59
2022-10-25T02:24:40.218Z,99741.25
2022-10-25T02:27:12.235Z,99745.69
2022-10-25T02:29:40.272Z,99748.34
2022-10-25T02:32:08.130Z,99751.53
2022-10-25T02:34:35.657Z,99744.09
2022-10-25T02:37:03.258Z,99756.72
2022-10-25T02:39:31.697Z,99743.94
2022-10-25T02:42:02.503Z,99745.94
2022-10-25T02:44:30.395Z,99753.69
2022-10-25T02:46:58.311Z,99745.59
2022-10-25T02:49:25.779Z,99745.25
2022-10-25T02:51:53.006Z,99742.91
2022-10-25T02:54:20.606Z,99753.84
2022-10-25T02:56:52.365Z,99742.22
2022-10-25T02:59:21.350Z,99749.88
2022-10-25T03:01:48.871Z,99757.22
2022-10-25T03:04:16.475Z,99738.22
2022-10-25T03:06:43.757Z,99742.56
2022-10-25T03:09:11.292Z,99748.81
2022-10-25T03:11:38.445Z,99749.31
2022-10-25T03:14:05.792Z,99742.03
2022-10-25T03:16:33.134Z,99742.53
2022-10-25T03:19:00.532Z,99750.59
2022-10-25T03:21:27.680Z,99741.81
2022-10-25T03:23:55.253Z,99748.75
2022-10-25T03:26:22.422Z,99741.00
2022-10-25T03:28:49.866Z,99739.84
2022-10-25T03:31:18.504Z,99744.56
2022-10-25T03:33:45.926Z,99742.91
2022-10-25T03:36:14.175Z,99739.53
2022-10-25T03:38:41.537Z,99746.03
2022-10-25T03:41:08.913Z,99738.47
2022-10-25T03:43:36.471Z,99738.03
2022-10-25T03:46:03.858Z,99747.91
2022-10-25T03:48:31.192Z,99740.00
2022-10-25T03:50:58.366Z,99745.38
2022-10-25T03:53:25.719Z,99736.53
2022-10-25T03:55:52.878Z,99739.88
2022-10-25T03:58:20.364Z,99729.94
2022-10-25T04:00:47.648Z,99725.06
2022-10-25T04:03:15.049Z,99742.22
2022-10-25T04:05:42.312Z,99733.09
2022-10-25T04:08:09.716Z,99733.06
2022-10-25T04:10:36.833Z,99746.22
2022-10-25T04:13:04.406Z,99739.25
2022-10-25T04:15:31.760Z,99733.03
2022-10-25T04:17:59.084Z,99736.06
2022-10-25T04:20:26.272Z,99745.66
2022-10-25T04:22:57.494Z,99743.16
2022-10-25T04:25:26.370Z,99736.38
2022-10-25T04:27:53.922Z,99737.41
2022-10-25T04:30:21.070Z,99739.09
2022-10-25T04:32:48.784Z,99743.47
2022-10-25T04:35:16.531Z,99737.88
2022-10-25T04:37:43.887Z,99746.25
2022-10-25T04:40:11.522Z,99738.97
2022-10-25T04:42:38.965Z,99741.78
2022-10-25T04:45:06.522Z,99750.00
2022-10-25T04:47:34.241Z,99739.75
2022-10-25T04:50:01.554Z,99742.50
2022-10-25T04:52:30.050Z,99736.94
2022-10-25T04:54:57.735Z,99745.72
2022-10-25T04:57:25.985Z,99743.81
2022-10-25T04:59:53.553Z,99740.41
2022-10-25T05:02:21.014Z,99739.13
2022-10-25T05:04:48.136Z,99742.44
2022-10-25T05:07:19.823Z,99748.34
2022-10-25T05:09:47.679Z,99746.41
2022-10-25T05:12:15.862Z,99757.34
2022-10-25T05:14:44.067Z,99747.75
2022-10-25T05:17:11.443Z,99756.75
2022-10-25T05:19:38.613Z,99756.44
2022-10-25T05:22:06.108Z,99755.25
2022-10-25T05:24:33.411Z,99764.59
2022-10-25T05:27:00.802Z,99753.69
2022-10-25T05:29:28.190Z,99767.03
2022-10-25T05:31:55.585Z,99757.91
2022-10-25T05:34:22.884Z,99761.56
2022-10-25T05:36:50.257Z,99758.94
2022-10-25T05:39:17.411Z,99761.28
2022-10-25T05:41:45.064Z,99757.25
2022-10-25T05:44:12.486Z,99762.84
2022-10-25T05:46:39.837Z,99750.19
2022-10-25T05:49:07.018Z,99757.63
2022-10-25T05:51:36.661Z,99760.13
2022-10-25T05:54:14.745Z,99765.13
2022-10-25T05:56:43.054Z,99776.13
2022-10-25T05:59:12.906Z,99761.91
2022-10-25T06:01:43.173Z,99765.69
2022-10-25T06:04:11.087Z,99774.00
2022-10-25T06:06:40.649Z,99765.47
2022-10-25T06:09:08.572Z,99770.31
2022-10-25T06:11:37.030Z,99779.81
2022-10-25T06:14:04.916Z,99780.00
2022-10-25T06:16:32.315Z,99784.09
2022-10-25T06:18:59.601Z,99779.00
2022-10-25T06:21:29.060Z,99789.28
2022-10-25T06:23:58.089Z,99799.66
2022-10-25T06:26:28.557Z,99806.81
2022-10-25T06:28:58.830Z,99803.06
2022-10-25T06:31:26.990Z,99810.03
2022-10-25T06:33:54.146Z,99814.44
2022-10-25T06:36:23.849Z,99821.50
2022-10-25T06:38:51.427Z,99821.03
2022-10-25T06:41:28.148Z,99834.44
2022-10-25T06:43:55.821Z,99838.53
2022-10-25T06:46:26.064Z,99827.88
2022-10-25T06:48:56.311Z,99850.22
2022-10-25T06:51:25.192Z,99831.59
2022-10-25T06:54:08.030Z,99845.88
2022-10-25T06:56:35.889Z,99843.00
2022-10-25T06:59:06.902Z,99844.06
2022-10-25T07:01:34.761Z,99841.81
2022-10-25T07:04:03.487Z,99842.06
2022-10-25T07:06:36.080Z,99851.31
2022-10-25T07:09:05.126Z,99847.69
2022-10-25T07:11:33.108Z,99851.56
2022-10-25T07:14:01.308Z,99835.75
2022-10-25T07:16:28.816Z,99831.69
2022-10-25T07:19:01.139Z,99835.91
2022-10-25T07:21:30.207Z,99841.56
2022-10-25T07:23:57.557Z,99836.91
2022-10-25T07:26:33.657Z,99848.69
2022-10-25T07:29:02.128Z,99838.63
2022-10-25T07:31:32.544Z,99829.25
2022-10-25T07:34:02.094Z,99827.13
2022-10-25T07:36:34.880Z,99835.03
2022-10-25T07:39:02.050Z,99836.94
2022-10-25T07:41:29.408Z,99838.16
2022-10-25T07:43:56.796Z,99840.41
2022-10-25T07:46:24.545Z,99845.84
2022-10-25T07:48:54.479Z,99857.34
2022-10-25T07:51:21.886Z,99865.53
2022-10-25T07:53:50.029Z,99855.38
2022-10-25T07:56:24.719Z,99852.75
2022-10-25T07:58:52.860Z,99863.00
2022-10-25T08:01:23.464Z,99864.78
2022-10-25T08:03:52.163Z,99865.91
2022-10-25T08:06:21.888Z,99857.13
2022-10-25T08:08:49.394Z,99864.66
2022-10-25T08:11:17.551Z,99861.25
2022-10-25T08:13:44.691Z,99861.78
2022-10-25T08:16:12.106Z,99861.44
2022-10-25T08:18:43.976Z,99868.28
2022-10-25T08:21:11.698Z,99866.88
2022-10-25T08:23:39.086Z,99864.22
2022-10-25T08:26:06.667Z,99866.47
2022-10-25T08:28:34.312Z,99871.78
2022-10-25T08:31:04.660Z,99875.69
2022-10-25T08:33:32.581Z,99880.94
2022-10-25T08:36:01.517Z,99879.59
2022-10-25T08:38:29.144Z,99876.16
2022-10-25T08:41:20.186Z,99872.53
2022-10-25T08:44:16.891Z,99877.44
2022-10-25T08:47:00.126Z,99874.59
2022-10-25T08:49:55.504Z,99871.69
2022-10-25T08:52:37.416Z,99890.47
2022-10-25T08:55:11.960Z,99863.75
2022-10-25T08:57:47.108Z,99878.06
2022-10-25T09:00:22.572Z,99871.53
2022-10-25T09:02:54.097Z,99871.97
2022-10-25T09:05:41.967Z,99877.78
2022-10-25T09:08:16.027Z,99866.66
2022-10-25T09:10:54.095Z,99874.38
2022-10-25T09:13:30.755Z,99873.88
2022-10-25T09:16:15.637Z,99884.56
2022-10-25T09:18:58.389Z,99888.69
2022-10-25T09:21:47.518Z,99889.03
2022-10-25T09:24:37.041Z,99908.88
2022-10-25T09:27:07.340Z,99897.78
2022-10-25T09:29:41.858Z,99898.75
2022-10-25T09:32:36.826Z,99890.78
2022-10-25T09:35:17.402Z,99893.91
2022-10-25T09:38:11.774Z,99895.81
2022-10-25T09:40:47.910Z,99897.06
2022-10-25T09:43:23.226Z,99892.47
2022-10-25T09:46:05.199Z,99893.34
2022-10-25T09:48:55.660Z,99893.19
2022-10-25T09:51:49.295Z,99891.13
2022-10-25T09:54:29.039Z,99891.28
2022-10-25T09:56:56.699Z,99898.28
2022-10-25T09:59:24.194Z,99894.50
2022-10-25T10:01:52.010Z,99894.03
2022-10-25T10:04:27.494Z,99894.28
2022-10-25T10:07:01.870Z,99893.44
2022-10-25T10:09:31.193Z,99894.81
2022-10-25T10:12:04.227Z,99896.41
2022-10-25T10:14:39.655Z,99899.97
2022-10-25T10:17:14.096Z,99892.53
2022-10-25T10:19:41.654Z,99905.59
2022-10-25T10:22:17.260Z,99892.09
2022-10-25T10:24:48.480Z,99892.84
2022-10-25T10:27:20.915Z,99903.72
2022-10-25T10:29:56.399Z,99901.28
2022-10-25T10:32:34.684Z,99897.59
2022-10-25T10:35:06.709Z,99895.16
2022-10-25T10:37:34.792Z,99893.28
2022-10-25T10:40:22.583Z,99894.72
2022-10-25T10:42:55.747Z,99891.81
2022-10-25T10:45:26.763Z,99893.16
2022-10-25T10:47:57.279Z,99894.59
2022-10-25T10:50:32.023Z,99891.06
2022-10-25T10:53:00.949Z,99890.31
2022-10-25T10:55:32.586Z,99891.66
2022-10-25T10:58:03.827Z,99895.22
2022-10-25T11:00:32.785Z,99887.53
2022-10-25T11:03:00.418Z,99891.53
2022-10-25T11:05:29.436Z,99898.53
2022-10-25T11:08:02.806Z,99899.78
2022-10-25T11:10:34.954Z,99900.16
2022-10-25T11:13:05.127Z,99901.25
2022-10-25T11:15:55.357Z,99897.25
2022-10-25T11:18:37.850Z,99902.69
2022-10-25T11:21:24.639Z,99901.81
2022-10-25T11:24:12.697Z,99908.75
2022-10-25T11:26:56.249Z,99912.22
2022-10-25T11:29:58.882Z,99915.78
2022-10-25T11:32:28.611Z,99925.97
2022-10-25T11:35:26.419Z,99914.66
2022-10-25T11:38:10.258Z,99916.94
2022-10-25T11:40:41.450Z,99911.28
2022-10-25T11:43:26.345Z,99925.22
2022-10-25T11:46:02.569Z,99911.50
2022-10-25T11:48:52.623Z,99927.41
2022-10-25T11:51:22.806Z,99935.84
2022-10-25T11:54:11.660Z,99932.81
2022-10-25T11:56:54.173Z,99931.34
2022-10-25T11:59:26.587Z,99928.75
2022-10-25T12:02:27.956Z,99944.00
2022-10-25T12:05:08.017Z,99941.47
2022-10-25T12:07:44.794Z,99951.91
2022-10-25T12:10:47.379Z,99955.31
2022-10-25T12:13:32.939Z,99957.50
2022-10-25T12:16:01.829Z,99957.06
2022-10-25T12:18:38.007Z,99956.78
2022-10-25T12:21:07.892Z,99963.38
2022-10-25T12:23:45.414Z,99966.63
2022-10-25T12:26:35.831Z,99958.22
2022-10-25T12:29:06.137Z,99972.03
2022-10-25T12:31:40.758Z,99966.25
2022-10-25T12:34:16.089Z,99971.28
2022-10-25T12:37:27.120Z,99973.34
2022-10-25T12:39:54.826Z,99969.06
2022-10-25T12:42:27.982Z,99971.06
2022-10-25T12:45:04.348Z,99968.16
2022-10-25T12:47:48.820Z,99976.34
2022-10-25T12:50:42.422Z,99965.38
2022-10-25T12:53:30.924Z,99966.44
2022-10-25T12:56:19.713Z,99976.75
2022-10-25T12:58:56.438Z,99982.31
2022-10-25T13:01:33.065Z,99981.72
2022-10-25T13:04:28.172Z,99982.28
2022-10-25T13:06:57.481Z,99985.06
2022-10-25T13:09:31.464Z,99992.84
2022-10-25T13:12:07.804Z,99985.72
2022-10-25T13:14:43.537Z,99990.88
2022-10-25T13:17:17.106Z,99988.38
2022-10-25T13:22:51.115Z,99987.13
2022-10-25T13:25:50.113Z,99983.25
2022-10-25T13:28:19.913Z,99979.63
2022-10-25T13:30:47.174Z,99988.66
2022-10-25T13:33:24.564Z,99998.75
2022-10-25T13:35:51.661Z,100004.22
2022-10-25T13:38:39.117Z,100002.94
2022-10-25T13:41:18.687Z,99997.84
2022-10-25T13:44:04.360Z,100012.44
2022-10-25T13:46:34.152Z,100002.47
2022-10-25T13:49:18.882Z,100003.63
2022-10-25T13:51:47.172Z,99994.97
2022-10-25T13:54:14.633Z,99997.59
2022-10-25T13:56:53.667Z,100007.53
2022-10-25T14:00:02.827Z,100006.28
2022-10-25T14:03:04.479Z,100006.31
2022-10-25T14:05:56.777Z,100003.13
2022-10-25T14:08:36.411Z,100013.22
2022-10-25T14:11:14.501Z,100007.31
2022-10-25T14:14:26.119Z,100006.91
2022-10-25T14:17:08.559Z,100007.03
2022-10-25T14:20:03.087Z,100009.88
2022-10-25T14:22:37.427Z,100013.53
2022-10-25T14:25:23.202Z,100008.38
2022-10-25T14:28:14.270Z,100011.75
2022-10-25T14:30:43.647Z,100015.41
2022-10-25T14:33:25.164Z,100012.91
2022-10-25T14:36:05.357Z,100020.66
2022-10-25T14:38:37.798Z,100026.47
2022-10-25T14:41:11.880Z,100010.13
2022-10-25T14:43:39.682Z,100019.25
2022-10-25T14:46:09.771Z,100025.19
2022-10-25T14:48:37.379Z,100016.66
2022-10-25T14:51:13.330Z,100019.91
2022-10-25T14:54:15.545Z,100031.09
2022-10-25T14:56:50.923Z,100030.91
2022-10-25T14:59:21.341Z,100021.41
2022-10-25T15:01:54.645Z,100026.53
2022-10-25T15:04:35.715Z,100037.28
2022-10-25T15:07:03.570Z,100020.47
2022-10-25T15:09:46.937Z,100030.81
2022-10-25T15:12:14.063Z,100033.84
2022-10-25T15:14:41.831Z,100041.22
2022-10-25T15:17:22.527Z,100026.41
2022-10-25T15:20:22.663Z,100040.53
2022-10-25T15:22:52.206Z,100037.28
2022-10-25T15:25:22.947Z,100043.41
2022-10-25T15:27:52.571Z,100052.34
2022-10-25T15:30:50.094Z,100054.75
2022-10-25T15:33:25.923Z,100047.25
2022-10-25T15:35:56.701Z,100039.16
2022-10-25T15:38:42.337Z,100050.84
2022-10-25T15:41:15.576Z,100039.91
2022-10-25T15:43:42.850Z,100060.00
2022-10-25T15:46:25.317Z,100062.00
2022-10-25T15:48:53.215Z,100038.41
2022-10-25T15:51:20.844Z,100053.06
2022-10-25T15:53:48.065Z,100049.22
2022-10-25T15:56:18.529Z,100051.22
2022-10-25T15:58:45.779Z,100061.16
2022-10-25T16:01:13.862Z,100055.91
2022-10-25T16:03:41.331Z,100059.56
2022-10-25T16:06:15.709Z,100062.91
2022-10-25T16:08:43.720Z,100073.13
2022-10-25T16:11:18.094Z,100064.28
2022-10-25T16:13:48.809Z,100060.19
2022-10-25T16:16:40.260Z,100065.13
2022-10-25T16:19:19.642Z,100072.25
2022-10-25T16:21:47.909Z,100074.47
2022-10-25T16:24:16.459Z,100067.88
2022-10-25T16:26:49.697Z,100069.13
2022-10-25T16:29:24.158Z,100072.19
2022-10-25T16:31:54.891Z,100077.94
2022-10-25T16:34:22.905Z,100067.06
2022-10-25T16:36:52.558Z,100067.53
2022-10-25T16:39:22.827Z,100081.28
2022-10-25T16:41:50.354Z,100067.28
2022-10-25T16:44:19.545Z,100066.56
2022-10-25T16:46:47.105Z,100065.06
2022-10-25T16:49:19.498Z,100066.69
2022-10-25T16:51:46.934Z,100065.94
2022-10-25T16:54:15.613Z,100062.72
2022-10-25T16:56:43.215Z,100066.16
2022-10-25T16:59:10.419Z,100063.69
2022-10-25T17:01:41.198Z,100064.72
2022-10-25T17:04:17.123Z,100069.22
2022-10-25T17:06:47.289Z,100075.19
2022-10-25T17:09:14.523Z,100073.97
2022-10-25T17:11:45.645Z,100073.63
2022-10-25T17:14:14.378Z,100068.91
2022-10-25T17:16:44.162Z,100079.03
2022-10-25T17:19:15.585Z,100073.28
2022-10-25T17:21:43.417Z,100070.84
2022-10-25T17:24:10.623Z,100078.41
2022-10-25T17:26:38.734Z,100078.00
2022-10-25T17:29:08.690Z,100074.25
2022-10-25T17:31:39.057Z,100079.94
2022-10-25T17:34:08.788Z,100084.22
2022-10-25T17:36:38.234Z,100087.44
2022-10-25T17:39:10.035Z,100080.03
2022-10-25T17:41:37.813Z,100088.47
2022-10-25T17:44:05.025Z,100092.56
2022-10-25T17:46:32.802Z,100085.94
2022-10-25T17:49:05.833Z,100092.84
2022-10-25T17:51:34.735Z,100087.75
2022-10-25T17:54:01.904Z,100096.56
2022-10-25T17:56:29.352Z,100100.75
2022-10-25T17:58:58.733Z,100108.13
2022-10-25T18:01:28.109Z,100110.28
2022-10-25T18:03:55.695Z,100104.59
2022-10-25T18:06:25.970Z,100122.78
2022-10-25T18:08:59.076Z,100122.44
2022-10-25T18:11:28.429Z,100131.19
2022-10-25T18:13:58.931Z,100131.59
2022-10-25T18:16:27.708Z,100134.84
2022-10-25T18:19:02.847Z,100126.09
2022-10-25T18:21:32.040Z,100129.22
2022-10-25T18:24:03.217Z,100121.16
2022-10-25T18:26:31.254Z,100131.63
2022-10-25T18:28:59.061Z,100127.72
2022-10-25T18:31:27.287Z,100129.91
2022-10-25T18:33:55.484Z,100131.19
2022-10-25T18:36:23.159Z,100127.50
2022-10-25T18:38:51.161Z,100132.44
2022-10-25T18:41:24.737Z,100141.06
2022-10-25T18:43:52.475Z,100145.91
2022-10-25T18:46:19.878Z,100145.56
2022-10-25T18:48:51.616Z,100144.94
2022-10-25T18:51:21.156Z,100150.97
2022-10-25T18:53:52.554Z,100151.50
2022-10-25T18:56:22.055Z,100152.31
2022-10-25T18:58:50.004Z,100156.03
2022-10-25T19:01:24.522Z,100157.94
2022-10-25T19:03:52.203Z,100161.50
2022-10-25T19:06:19.633Z,100159.44
2022-10-25T19:08:49.248Z,100166.38
2022-10-25T19:11:16.785Z,100167.34
2022-10-25T19:13:47.565Z,100160.31
2022-10-25T19:16:18.130Z,100163.84
2022-10-25T19:18:45.298Z,100157.44
2022-10-25T19:21:16.794Z,100174.00
2022-10-25T19:23:46.278Z,100166.53
2022-10-25T19:26:19.716Z,100169.19
2022-10-25T19:28:47.576Z,100163.09
2022-10-25T19:31:17.190Z,100174.72
2022-10-25T19:33:50.138Z,100172.41
2022-10-25T19:36:18.453Z,100164.72
2022-10-25T19:38:48.829Z,100172.75
2022-10-25T19:41:18.897Z,100171.41
2022-10-25T19:43:47.141Z,100164.94
2022-10-25T19:46:15.310Z,100166.88
2022-10-25T19:48:42.479Z,100170.13
2022-10-25T19:51:13.809Z,100170.75
2022-10-25T19:53:41.088Z,100174.69
2022-10-25T19:56:18.986Z,100174.44
2022-10-25T19:58:47.555Z,100169.84
2022-10-25T20:01:17.880Z,100178.03
2022-10-25T20:03:48.607Z,100182.66
2022-10-25T20:06:23.341Z,100183.59
2022-10-25T20:08:53.029Z,100174.44
2022-10-25T20:11:21.501Z,100175.88
2022-10-25T20:13:48.713Z,100182.84
2022-10-25T20:16:16.074Z,100187.59
2022-10-25T20:18:43.474Z,100192.75
2022-10-25T20:21:16.990Z,100190.16
2022-10-25T20:23:49.387Z,100178.59
2022-10-25T20:26:23.814Z,100181.16
2022-10-25T20:28:55.442Z,100175.22
2022-10-25T20:31:23.638Z,100189.69
2022-10-25T20:33:51.910Z,100196.47
2022-10-25T20:36:19.650Z,100186.84
2022-10-25T20:38:47.477Z,100181.69
2022-10-25T20:41:20.633Z,100186.97
2022-10-25T20:43:53.497Z,100191.06
2022-10-25T20:46:22.940Z,100186.75
2022-10-25T20:48:50.675Z,100195.38
2022-10-25T20:51:18.401Z,100193.44
2022-10-25T20:53:46.499Z,100196.53
2022-10-25T20:56:14.816Z,100188.59
2022-10-25T20:58:42.088Z,100195.41
2022-10-25T21:01:10.198Z,100182.06
2022-10-25T21:03:38.521Z,100191.63
2022-10-25T21:06:08.058Z,100183.75
2022-10-25T21:08:37.542Z,100182.22
2022-10-25T21:11:07.433Z,100179.13
2022-10-25T21:13:36.252Z,100196.47
2022-10-25T21:16:08.873Z,100192.63
2022-10-25T21:18:37.338Z,100195.69
2022-10-25T21:21:07.630Z,100188.13
2022-10-25T21:23:35.462Z,100198.91
2022-10-25T21:26:07.795Z,100183.16
2022-10-25T21:28:37.693Z,100190.22
2022-10-25T21:31:08.088Z,100190.75
2022-10-25T21:33:35.634Z,100175.75
2022-10-25T21:36:08.835Z,100197.56
2022-10-25T21:38:36.707Z,100187.91
2022-10-25T21:41:20.609Z,100191.44
2022-10-25T21:43:49.941Z,100196.47
2022-10-25T21:46:19.720Z,100196.81
2022-10-25T21:48:48.093Z,100194.09
2022-10-25T21:51:15.543Z,100194.97
2022-10-25T21:53:42.962Z,100189.03
2022-10-25T21:56:12.658Z,100185.81
2022-10-25T21:58:41.626Z,100188.91
2022-10-25T22:01:12.400Z,100186.28
2022-10-25T22:03:40.516Z,100201.22
2022-10-25T22:06:13.782Z,100196.66
2022-10-25T22:08:41.747Z,100194.75
2022-10-25T22:11:15.449Z,100202.53
2022-10-25T22:13:43.076Z,100204.56
2022-10-25T22:16:19.024Z,100202.53
2022-10-25T22:18:54.902Z,100207.25
2022-10-25T22:21:22.311Z,100207.78
2022-10-25T22:23:49.931Z,100201.84
2022-10-25T22:26:19.496Z,100217.28
2022-10-25T22:28:50.893Z,100209.94
2022-10-25T22:31:20.085Z,100204.84
2022-10-25T22:33:51.821Z,100203.97
2022-10-25T22:36:20.265Z,100214.22
2022-10-25T22:38:47.614Z,100202.41
2022-10-25T22:41:26.536Z,100213.84
2022-10-25T22:43:54.085Z,100214.41
2022-10-25T22:46:30.915Z,100214.56
2022-10-25T22:48:59.828Z,100219.91
2022-10-25T22:51:28.239Z,100212.09
2022-10-25T22:53:55.483Z,100222.06
2022-10-25T22:56:27.625Z,100224.50
2022-10-25T22:58:57.560Z,100222.31
2022-10-25T23:01:27.550Z,100226.28
2022-10-25T23:03:56.715Z,100217.13
2022-10-25T23:06:27.089Z,100221.03
2022-10-25T23:08:55.655Z,100226.53
2022-10-25T23:11:42.391Z,100224.78
2022-10-25T23:14:14.701Z,100229.00
2022-10-25T23:16:46.224Z,100225.59
2022-10-25T23:19:13.457Z,100222.16
2022-10-25T23:21:40.888Z,100228.69
2022-10-25T23:24:09.431Z,100217.00
2022-10-25T23:26:36.957Z,100215.22
2022-10-25T23:29:05.129Z,100223.22
2022-10-25T23:31:33.024Z,100218.00
2022-10-25T23:34:00.603Z,100229.88
2022-10-25T23:36:30.502Z,100225.75
2022-10-25T23:38:58.310Z,100218.34
2022-10-25T23:41:25.866Z,100212.66
2022-10-25T23:43:53.179Z,100230.28
2022-10-25T23:46:20.552Z,100229.13
2022-10-25T23:48:48.070Z,100227.59
2022-10-25T23:51:17.662Z,100228.50
2022-10-25T23:53:45.680Z,100230.88
2022-10-25T23:56:14.032Z,100238.06
2022-10-25T23:58:41.862Z,100225.63
